Evans, Illinois
Current Conditions -  °F | °C
As of 2:55 PM on Thursday 23 Oct 2014 (Local Time) from KC75 Reporting Station
Scattered Clouds Scattered Clouds  
Wind Chill: 58°   Ceiling: Unl
Heat Index: 58°   Visibility: 10mi
Dew Point: 43°   Wind: 8mph
Humidity: 58%   Direction: 210°SSW
Pressure: 30.1"   Gusts: NA
Location:  41.0632°N, 89.0208°W
Report Text: KC75 231955Z AUTO 21007KT 10SM SCT100 15/06 A3010 RMK AO2 T01450063
Loading
Personal Weather Stations






























Interactive Weather Map
Tropical Storm Tracking
New forecast layout! Learn more

10-Day Weather Forecast

Advertisements
Track Severe Weather on mobile